Archival Weather

Chicago O'Hare International

Chicago, Illinois (KORD)

Report from: Saturday, March 31, 2012 2:32 AM CDT
Current time: Monday, June 17, 2024 4:24 AM CDT

Current weather – Weather history – Daily summaries
Weather forecast

Temperature4.0°C (39.2°F)
Wind chill-0.2°C (31.6°F)
Dew point2.0°C (35.6°F)
Winds 11 kts (5.7 m/s, 12.7 mph) Northeast (40°)
Visibility10 mi. (16.1 km)
Clouds Ceiling: Overcast 800 ft. (244 m)
Altimeter29.95 in.Hg (1014 mB)
Relative humidity87 %
Density altitude-1,261 ft. (-384 m)
Remarks System requires maintenance
Special weather observation
Automated weather observing station with precipitation discriminator
Flight conditions Instrument Meteorological Conditions
Raw data2012-03-31 07:32 KORD 310732Z 04011KT 10SM OVC008 04/02 A2995 RMK AO2 $ SPECI
An error has occurred. This application may no longer respond until reloaded. Reload 🗙